sensor_id;sensor_type;location;lat;lon;timestamp;temperature;humidity
9157;DHT22;4613;48.392;9.998;2023-08-21T00:01:00;26.90;99.90
9157;DHT22;4613;48.392;9.998;2023-08-21T00:03:49;26.90;99.90
9157;DHT22;4613;48.392;9.998;2023-08-21T00:06:38;26.90;99.90
9157;DHT22;4613;48.392;9.998;2023-08-21T00:09:27;26.70;99.90
9157;DHT22;4613;48.392;9.998;2023-08-21T00:12:17;26.70;99.90
9157;DHT22;4613;48.392;9.998;2023-08-21T00:15:07;26.70;99.90
9157;DHT22;4613;48.392;9.998;2023-08-21T00:18:00;26.50;99.90
9157;DHT22;4613;48.392;9.998;2023-08-21T00:20:51;26.60;99.90
9157;DHT22;4613;48.392;9.998;2023-08-21T00:23:42;26.20;99.90
9157;DHT22;4613;48.392;9.998;2023-08-21T00:26:31;26.20;99.90
9157;DHT22;4613;48.392;9.998;2023-08-21T00:29:20;26.00;99.90
9157;DHT22;4613;48.392;9.998;2023-08-21T00:32:10;25.90;99.90
9157;DHT22;4613;48.392;9.998;2023-08-21T00:35:01;26.00;99.90
9157;DHT22;4613;48.392;9.998;2023-08-21T00:37:51;26.10;99.90
9157;DHT22;4613;48.392;9.998;2023-08-21T00:40:40;26.00;99.90
9157;DHT22;4613;48.392;9.998;2023-08-21T00:43:29;25.90;99.90
9157;DHT22;4613;48.392;9.998;2023-08-21T00:46:18;26.00;99.90
9157;DHT22;4613;48.392;9.998;2023-08-21T00:49:07;26.10;99.90
9157;DHT22;4613;48.392;9.998;2023-08-21T00:51:57;25.90;99.90
9157;DHT22;4613;48.392;9.998;2023-08-21T00:54:47;26.00;99.90
9157;DHT22;4613;48.392;9.998;2023-08-21T00:57:36;25.90;99.90
9157;DHT22;4613;48.392;9.998;2023-08-21T01:00:27;26.10;99.90
9157;DHT22;4613;48.392;9.998;2023-08-21T01:03:19;25.80;99.90
9157;DHT22;4613;48.392;9.998;2023-08-21T01:06:08;25.90;99.90
9157;DHT22;4613;48.392;9.998;2023-08-21T01:15:13;26.20;99.90
9157;DHT22;4613;48.392;9.998;2023-08-21T01:18:04;26.00;99.90
9157;DHT22;4613;48.392;9.998;2023-08-21T01:20:53;26.00;99.90
9157;DHT22;4613;48.392;9.998;2023-08-21T01:23:43;26.00;99.90
9157;DHT22;4613;48.392;9.998;2023-08-21T01:26:32;26.00;99.90
9157;DHT22;4613;48.392;9.998;2023-08-21T01:29:22;26.10;99.90
9157;DHT22;4613;48.392;9.998;2023-08-21T01:35:11;26.10;99.90
9157;DHT22;4613;48.392;9.998;2023-08-21T01:38:05;26.00;99.90
9157;DHT22;4613;48.392;9.998;2023-08-21T01:40:54;25.80;99.90
9157;DHT22;4613;48.392;9.998;2023-08-21T01:43:43;25.90;99.90
9157;DHT22;4613;48.392;9.998;2023-08-21T01:46:33;25.90;99.90
9157;DHT22;4613;48.392;9.998;2023-08-21T01:49:22;25.90;99.90
9157;DHT22;4613;48.392;9.998;2023-08-21T01:52:12;25.80;99.90
9157;DHT22;4613;48.392;9.998;2023-08-21T01:55:02;25.60;99.90
9157;DHT22;4613;48.392;9.998;2023-08-21T01:57:53;25.80;99.90
9157;DHT22;4613;48.392;9.998;2023-08-21T02:00:45;25.50;99.90
9157;DHT22;4613;48.392;9.998;2023-08-21T02:03:34;25.70;99.90
9157;DHT22;4613;48.392;9.998;2023-08-21T02:06:23;25.50;99.90
9157;DHT22;4613;48.392;9.998;2023-08-21T02:09:12;25.70;99.90
9157;DHT22;4613;48.392;9.998;2023-08-21T02:12:01;25.60;99.90
9157;DHT22;4613;48.392;9.998;2023-08-21T02:14:51;25.70;99.90
9157;DHT22;4613;48.392;9.998;2023-08-21T02:17:40;25.70;99.90
9157;DHT22;4613;48.392;9.998;2023-08-21T02:20:31;25.70;99.90
9157;DHT22;4613;48.392;9.998;2023-08-21T02:23:20;25.70;99.90
9157;DHT22;4613;48.392;9.998;2023-08-21T02:26:10;25.70;99.90
9157;DHT22;4613;48.392;9.998;2023-08-21T02:28:59;25.60;99.90
9157;DHT22;4613;48.392;9.998;2023-08-21T02:31:48;25.70;99.90
9157;DHT22;4613;48.392;9.998;2023-08-21T02:34:37;25.60;99.90
9157;DHT22;4613;48.392;9.998;2023-08-21T02:37:28;25.50;99.90
9157;DHT22;4613;48.392;9.998;2023-08-21T02:40:18;25.60;99.90
9157;DHT22;4613;48.392;9.998;2023-08-21T02:43:07;25.50;99.90
9157;DHT22;4613;48.392;9.998;2023-08-21T02:45:56;25.40;99.90
9157;DHT22;4613;48.392;9.998;2023-08-21T02:48:45;25.50;99.90
9157;DHT22;4613;48.392;9.998;2023-08-21T02:51:35;25.50;99.90
9157;DHT22;4613;48.392;9.998;2023-08-21T02:54:23;25.30;99.90
9157;DHT22;4613;48.392;9.998;2023-08-21T02:57:12;25.40;99.90
9157;DHT22;4613;48.392;9.998;2023-08-21T03:00:02;25.40;99.90
9157;DHT22;4613;48.392;9.998;2023-08-21T03:02:52;25.30;99.90
9157;DHT22;4613;48.392;9.998;2023-08-21T03:05:41;25.30;99.90
9157;DHT22;4613;48.392;9.998;2023-08-21T03:08:30;25.40;99.90
9157;DHT22;4613;48.392;9.998;2023-08-21T03:11:18;25.30;99.90
9157;DHT22;4613;48.392;9.998;2023-08-21T03:14:08;25.20;99.90
9157;DHT22;4613;48.392;9.998;2023-08-21T03:16:57;25.20;99.90
9157;DHT22;4613;48.392;9.998;2023-08-21T03:19:46;25.00;99.90
9157;DHT22;4613;48.392;9.998;2023-08-21T03:22:35;24.80;99.90
9157;DHT22;4613;48.392;9.998;2023-08-21T03:25:25;24.70;99.90
9157;DHT22;4613;48.392;9.998;2023-08-21T03:28:14;24.70;99.90
9157;DHT22;4613;48.392;9.998;2023-08-21T03:31:03;24.60;99.90
9157;DHT22;4613;48.392;9.998;2023-08-21T03:33:53;24.50;99.90
9157;DHT22;4613;48.392;9.998;2023-08-21T03:36:45;24.30;99.90
9157;DHT22;4613;48.392;9.998;2023-08-21T03:39:35;24.50;99.90
9157;DHT22;4613;48.392;9.998;2023-08-21T03:42:25;24.90;99.90
9157;DHT22;4613;48.392;9.998;2023-08-21T03:45:14;25.10;99.90
9157;DHT22;4613;48.392;9.998;2023-08-21T03:48:03;25.10;99.90
9157;DHT22;4613;48.392;9.998;2023-08-21T03:50:52;25.00;99.90
9157;DHT22;4613;48.392;9.998;2023-08-21T03:53:41;25.00;99.90
9157;DHT22;4613;48.392;9.998;2023-08-21T03:56:31;24.90;99.90
9157;DHT22;4613;48.392;9.998;2023-08-21T03:59:20;24.90;99.90
9157;DHT22;4613;48.392;9.998;2023-08-21T04:02:09;24.90;99.90
9157;DHT22;4613;48.392;9.998;2023-08-21T04:04:58;24.90;99.90
9157;DHT22;4613;48.392;9.998;2023-08-21T04:07:47;24.60;99.90
9157;DHT22;4613;48.392;9.998;2023-08-21T04:10:37;24.60;99.90
9157;DHT22;4613;48.392;9.998;2023-08-21T04:13:27;24.70;99.90
9157;DHT22;4613;48.392;9.998;2023-08-21T04:16:16;24.70;99.90
9157;DHT22;4613;48.392;9.998;2023-08-21T04:19:06;24.30;99.90
9157;DHT22;4613;48.392;9.998;2023-08-21T04:21:57;24.00;99.90
9157;DHT22;4613;48.392;9.998;2023-08-21T04:24:46;23.50;99.90
9157;DHT22;4613;48.392;9.998;2023-08-21T04:27:36;23.30;99.90
9157;DHT22;4613;48.392;9.998;2023-08-21T04:30:25;23.40;99.90
9157;DHT22;4613;48.392;9.998;2023-08-21T04:33:14;23.20;99.90
9157;DHT22;4613;48.392;9.998;2023-08-21T04:36:04;23.40;99.90
9157;DHT22;4613;48.392;9.998;2023-08-21T04:38:54;23.60;99.90
9157;DHT22;4613;48.392;9.998;2023-08-21T04:41:44;23.70;99.90
9157;DHT22;4613;48.392;9.998;2023-08-21T04:44:33;23.70;99.90
9157;DHT22;4613;48.392;9.998;2023-08-21T04:47:27;23.50;99.90
9157;DHT22;4613;48.392;9.998;2023-08-21T04:50:19;23.70;99.90
9157;DHT22;4613;48.392;9.998;2023-08-21T04:53:09;23.50;99.90
9157;DHT22;4613;48.392;9.998;2023-08-21T04:55:59;23.20;99.90
9157;DHT22;4613;48.392;9.998;2023-08-21T04:58:49;23.10;99.90
9157;DHT22;4613;48.392;9.998;2023-08-21T05:01:40;23.60;99.90
9157;DHT22;4613;48.392;9.998;2023-08-21T05:04:30;23.90;99.90
9157;DHT22;4613;48.392;9.998;2023-08-21T05:07:19;24.30;99.90
9157;DHT22;4613;48.392;9.998;2023-08-21T05:10:09;24.70;99.90
9157;DHT22;4613;48.392;9.998;2023-08-21T05:13:00;24.20;99.90
9157;DHT22;4613;48.392;9.998;2023-08-21T05:15:57;24.30;99.90
9157;DHT22;4613;48.392;9.998;2023-08-21T05:18:49;24.30;99.90
9157;DHT22;4613;48.392;9.998;2023-08-21T05:21:39;24.30;99.90
9157;DHT22;4613;48.392;9.998;2023-08-21T05:24:29;24.30;99.90
9157;DHT22;4613;48.392;9.998;2023-08-21T05:27:24;24.60;99.90
9157;DHT22;4613;48.392;9.998;2023-08-21T05:30:14;24.60;99.90
9157;DHT22;4613;48.392;9.998;2023-08-21T05:33:04;24.80;99.90
9157;DHT22;4613;48.392;9.998;2023-08-21T05:35:57;24.90;99.90
9157;DHT22;4613;48.392;9.998;2023-08-21T05:38:47;25.20;99.90
9157;DHT22;4613;48.392;9.998;2023-08-21T05:41:38;25.10;99.90
9157;DHT22;4613;48.392;9.998;2023-08-21T05:44:27;25.00;99.90
9157;DHT22;4613;48.392;9.998;2023-08-21T05:47:17;25.00;99.90
9157;DHT22;4613;48.392;9.998;2023-08-21T05:50:06;25.10;99.90
9157;DHT22;4613;48.392;9.998;2023-08-21T05:52:57;25.30;99.90
9157;DHT22;4613;48.392;9.998;2023-08-21T05:55:48;25.60;99.90
9157;DHT22;4613;48.392;9.998;2023-08-21T05:58:38;25.80;99.90
9157;DHT22;4613;48.392;9.998;2023-08-21T06:01:28;25.90;99.90
9157;DHT22;4613;48.392;9.998;2023-08-21T06:04:17;26.20;99.90
9157;DHT22;4613;48.392;9.998;2023-08-21T06:07:15;26.30;99.90
9157;DHT22;4613;48.392;9.998;2023-08-21T06:10:04;26.40;99.90
9157;DHT22;4613;48.392;9.998;2023-08-21T06:12:54;26.50;99.90
9157;DHT22;4613;48.392;9.998;2023-08-21T06:15:44;26.60;99.90
9157;DHT22;4613;48.392;9.998;2023-08-21T06:18:37;26.50;99.90
9157;DHT22;4613;48.392;9.998;2023-08-21T06:21:26;26.60;99.90
9157;DHT22;4613;48.392;9.998;2023-08-21T06:24:15;26.60;99.90
9157;DHT22;4613;48.392;9.998;2023-08-21T06:27:04;26.80;99.90
9157;DHT22;4613;48.392;9.998;2023-08-21T06:29:54;26.90;99.90
9157;DHT22;4613;48.392;9.998;2023-08-21T06:32:44;27.10;99.90
9157;DHT22;4613;48.392;9.998;2023-08-21T06:35:36;27.40;99.90
9157;DHT22;4613;48.392;9.998;2023-08-21T06:38:26;27.50;99.90
9157;DHT22;4613;48.392;9.998;2023-08-21T06:41:16;27.60;99.90
9157;DHT22;4613;48.392;9.998;2023-08-21T06:44:06;27.70;99.90
9157;DHT22;4613;48.392;9.998;2023-08-21T06:46:57;27.80;99.90
9157;DHT22;4613;48.392;9.998;2023-08-21T06:49:47;27.70;99.90
9157;DHT22;4613;48.392;9.998;2023-08-21T06:52:37;27.90;99.90
9157;DHT22;4613;48.392;9.998;2023-08-21T06:55:26;27.70;99.90
9157;DHT22;4613;48.392;9.998;2023-08-21T06:58:15;27.90;99.90
9157;DHT22;4613;48.392;9.998;2023-08-21T07:01:04;28.00;99.90
9157;DHT22;4613;48.392;9.998;2023-08-21T07:03:54;28.20;99.90
9157;DHT22;4613;48.392;9.998;2023-08-21T07:06:43;28.00;99.90
9157;DHT22;4613;48.392;9.998;2023-08-21T07:09:32;27.90;99.90
9157;DHT22;4613;48.392;9.998;2023-08-21T07:12:22;28.40;99.90
9157;DHT22;4613;48.392;9.998;2023-08-21T07:15:11;28.60;99.90
9157;DHT22;4613;48.392;9.998;2023-08-21T07:18:01;28.70;99.90
9157;DHT22;4613;48.392;9.998;2023-08-21T07:20:52;28.70;99.90
9157;DHT22;4613;48.392;9.998;2023-08-21T07:23:42;29.10;99.90
9157;DHT22;4613;48.392;9.998;2023-08-21T07:26:32;29.30;99.90
9157;DHT22;4613;48.392;9.998;2023-08-21T07:29:21;29.70;99.90
9157;DHT22;4613;48.392;9.998;2023-08-21T07:32:11;30.00;99.90
9157;DHT22;4613;48.392;9.998;2023-08-21T07:35:01;29.80;99.90
9157;DHT22;4613;48.392;9.998;2023-08-21T07:37:50;29.60;99.90
9157;DHT22;4613;48.392;9.998;2023-08-21T07:40:39;29.60;99.90
9157;DHT22;4613;48.392;9.998;2023-08-21T07:43:28;29.60;99.90
9157;DHT22;4613;48.392;9.998;2023-08-21T07:46:17;30.40;99.90
9157;DHT22;4613;48.392;9.998;2023-08-21T07:49:07;30.20;99.90
9157;DHT22;4613;48.392;9.998;2023-08-21T07:51:57;30.30;99.90
9157;DHT22;4613;48.392;9.998;2023-08-21T07:54:46;30.60;99.90
9157;DHT22;4613;48.392;9.998;2023-08-21T07:57:35;30.80;99.90
9157;DHT22;4613;48.392;9.998;2023-08-21T08:00:25;30.90;99.90
9157;DHT22;4613;48.392;9.998;2023-08-21T08:03:15;30.90;99.90
9157;DHT22;4613;48.392;9.998;2023-08-21T08:06:05;30.80;99.90
9157;DHT22;4613;48.392;9.998;2023-08-21T08:08:55;30.90;99.90
9157;DHT22;4613;48.392;9.998;2023-08-21T08:11:44;31.10;99.90
9157;DHT22;4613;48.392;9.998;2023-08-21T08:14:34;31.20;99.90
9157;DHT22;4613;48.392;9.998;2023-08-21T08:17:23;31.30;99.90
9157;DHT22;4613;48.392;9.998;2023-08-21T08:20:13;31.70;99.90
9157;DHT22;4613;48.392;9.998;2023-08-21T08:23:04;31.80;99.90
9157;DHT22;4613;48.392;9.998;2023-08-21T08:25:53;31.90;99.90
9157;DHT22;4613;48.392;9.998;2023-08-21T08:28:43;32.10;99.90
9157;DHT22;4613;48.392;9.998;2023-08-21T08:31:32;32.10;99.90
9157;DHT22;4613;48.392;9.998;2023-08-21T08:34:23;31.80;99.90
9157;DHT22;4613;48.392;9.998;2023-08-21T08:37:12;31.70;99.90
9157;DHT22;4613;48.392;9.998;2023-08-21T08:40:01;31.80;99.90
9157;DHT22;4613;48.392;9.998;2023-08-21T08:42:51;32.00;99.90
9157;DHT22;4613;48.392;9.998;2023-08-21T08:45:41;32.20;99.90
9157;DHT22;4613;48.392;9.998;2023-08-21T08:48:37;32.30;99.90
9157;DHT22;4613;48.392;9.998;2023-08-21T08:51:29;32.40;99.90
9157;DHT22;4613;48.392;9.998;2023-08-21T08:54:21;32.50;99.90
9157;DHT22;4613;48.392;9.998;2023-08-21T08:57:11;32.40;99.90
9157;DHT22;4613;48.392;9.998;2023-08-21T09:00:01;32.30;99.90
9157;DHT22;4613;48.392;9.998;2023-08-21T09:02:50;32.70;99.90
9157;DHT22;4613;48.392;9.998;2023-08-21T09:05:40;32.80;99.90
9157;DHT22;4613;48.392;9.998;2023-08-21T09:08:30;32.50;99.90
9157;DHT22;4613;48.392;9.998;2023-08-21T09:11:20;32.40;99.90
9157;DHT22;4613;48.392;9.998;2023-08-21T09:14:10;32.40;99.90
9157;DHT22;4613;48.392;9.998;2023-08-21T09:17:01;32.50;99.90
9157;DHT22;4613;48.392;9.998;2023-08-21T09:19:53;32.60;99.90
9157;DHT22;4613;48.392;9.998;2023-08-21T09:22:53;32.30;99.90
9157;DHT22;4613;48.392;9.998;2023-08-21T09:25:45;32.30;99.90
9157;DHT22;4613;48.392;9.998;2023-08-21T09:28:37;32.30;99.90
9157;DHT22;4613;48.392;9.998;2023-08-21T09:31:31;32.40;99.90
9157;DHT22;4613;48.392;9.998;2023-08-21T09:34:21;32.00;99.90
9157;DHT22;4613;48.392;9.998;2023-08-21T09:37:10;32.20;99.90
9157;DHT22;4613;48.392;9.998;2023-08-21T09:40:01;31.80;99.90
9157;DHT22;4613;48.392;9.998;2023-08-21T09:42:56;31.80;99.90
9157;DHT22;4613;48.392;9.998;2023-08-21T09:45:47;31.50;99.90
9157;DHT22;4613;48.392;9.998;2023-08-21T09:48:37;31.70;99.90
9157;DHT22;4613;48.392;9.998;2023-08-21T09:51:26;31.80;99.90
9157;DHT22;4613;48.392;9.998;2023-08-21T09:54:16;31.90;99.90
9157;DHT22;4613;48.392;9.998;2023-08-21T09:57:06;32.00;99.90
9157;DHT22;4613;48.392;9.998;2023-08-21T09:59:55;31.30;99.90
9157;DHT22;4613;48.392;9.998;2023-08-21T10:02:49;31.50;99.90
9157;DHT22;4613;48.392;9.998;2023-08-21T10:05:39;31.70;99.90
9157;DHT22;4613;48.392;9.998;2023-08-21T10:08:29;31.50;99.90
9157;DHT22;4613;48.392;9.998;2023-08-21T10:11:20;31.70;99.90
9157;DHT22;4613;48.392;9.998;2023-08-21T10:14:10;32.10;99.90
9157;DHT22;4613;48.392;9.998;2023-08-21T10:17:00;31.80;99.90
9157;DHT22;4613;48.392;9.998;2023-08-21T10:19:52;31.60;99.90
9157;DHT22;4613;48.392;9.998;2023-08-21T10:22:47;31.60;99.90
9157;DHT22;4613;48.392;9.998;2023-08-21T10:25:41;31.60;99.90
9157;DHT22;4613;48.392;9.998;2023-08-21T10:28:50;31.70;99.90
9157;DHT22;4613;48.392;9.998;2023-08-21T10:31:40;32.00;99.90
9157;DHT22;4613;48.392;9.998;2023-08-21T10:34:36;32.10;99.90
9157;DHT22;4613;48.392;9.998;2023-08-21T10:37:26;32.00;99.90
9157;DHT22;4613;48.392;9.998;2023-08-21T10:40:22;31.80;99.90
9157;DHT22;4613;48.392;9.998;2023-08-21T10:46:26;31.90;99.90
9157;DHT22;4613;48.392;9.998;2023-08-21T10:49:15;31.80;99.90
9157;DHT22;4613;48.392;9.998;2023-08-21T10:52:05;31.80;99.90
9157;DHT22;4613;48.392;9.998;2023-08-21T10:55:00;31.80;99.90
9157;DHT22;4613;48.392;9.998;2023-08-21T10:57:49;31.80;99.90
9157;DHT22;4613;48.392;9.998;2023-08-21T11:00:39;32.00;99.90
9157;DHT22;4613;48.392;9.998;2023-08-21T11:03:28;32.20;99.90
9157;DHT22;4613;48.392;9.998;2023-08-21T11:06:19;32.20;99.90
9157;DHT22;4613;48.392;9.998;2023-08-21T11:09:14;32.00;99.90
9157;DHT22;4613;48.392;9.998;2023-08-21T11:12:10;32.20;99.90
9157;DHT22;4613;48.392;9.998;2023-08-21T11:15:00;32.30;99.90
9157;DHT22;4613;48.392;9.998;2023-08-21T11:17:57;32.10;99.90
9157;DHT22;4613;48.392;9.998;2023-08-21T11:20:47;32.40;99.90
9157;DHT22;4613;48.392;9.998;2023-08-21T11:23:38;32.20;99.90
9157;DHT22;4613;48.392;9.998;2023-08-21T11:26:28;32.10;99.90
9157;DHT22;4613;48.392;9.998;2023-08-21T11:29:18;32.20;99.90
9157;DHT22;4613;48.392;9.998;2023-08-21T11:32:12;32.40;99.90
9157;DHT22;4613;48.392;9.998;2023-08-21T11:35:01;32.30;99.90
9157;DHT22;4613;48.392;9.998;2023-08-21T11:37:52;32.60;99.90
9157;DHT22;4613;48.392;9.998;2023-08-21T11:40:41;32.60;99.90
9157;DHT22;4613;48.392;9.998;2023-08-21T11:46:23;32.50;99.90
9157;DHT22;4613;48.392;9.998;2023-08-21T11:49:13;32.30;99.90
9157;DHT22;4613;48.392;9.998;2023-08-21T11:52:03;32.40;99.90
9157;DHT22;4613;48.392;9.998;2023-08-21T11:54:54;32.40;99.90
9157;DHT22;4613;48.392;9.998;2023-08-21T11:57:51;32.50;99.90
9157;DHT22;4613;48.392;9.998;2023-08-21T12:00:40;32.60;99.90
9157;DHT22;4613;48.392;9.998;2023-08-21T12:03:29;32.10;99.90
9157;DHT22;4613;48.392;9.998;2023-08-21T12:06:18;32.30;99.90
9157;DHT22;4613;48.392;9.998;2023-08-21T12:09:07;32.30;99.90
9157;DHT22;4613;48.392;9.998;2023-08-21T12:11:57;32.60;99.90
9157;DHT22;4613;48.392;9.998;2023-08-21T12:14:46;32.40;99.90
9157;DHT22;4613;48.392;9.998;2023-08-21T12:17:36;32.30;99.90
9157;DHT22;4613;48.392;9.998;2023-08-21T12:20:25;32.30;99.90
9157;DHT22;4613;48.392;9.998;2023-08-21T12:23:14;32.20;99.90
9157;DHT22;4613;48.392;9.998;2023-08-21T12:26:04;32.20;99.90
9157;DHT22;4613;48.392;9.998;2023-08-21T12:28:53;31.90;99.90
9157;DHT22;4613;48.392;9.998;2023-08-21T12:31:42;31.90;99.90
9157;DHT22;4613;48.392;9.998;2023-08-21T12:34:31;31.80;99.90
9157;DHT22;4613;48.392;9.998;2023-08-21T12:37:20;31.80;99.90
9157;DHT22;4613;48.392;9.998;2023-08-21T12:40:10;31.70;99.90
9157;DHT22;4613;48.392;9.998;2023-08-21T12:42:59;31.60;99.90
9157;DHT22;4613;48.392;9.998;2023-08-21T12:45:48;32.00;99.90
9157;DHT22;4613;48.392;9.998;2023-08-21T12:48:37;32.30;99.90
9157;DHT22;4613;48.392;9.998;2023-08-21T12:51:27;32.00;99.90
9157;DHT22;4613;48.392;9.998;2023-08-21T12:54:17;32.30;99.90
9157;DHT22;4613;48.392;9.998;2023-08-21T12:57:08;32.20;99.90
9157;DHT22;4613;48.392;9.998;2023-08-21T13:00:00;32.40;99.90
9157;DHT22;4613;48.392;9.998;2023-08-21T13:02:49;32.40;99.90
9157;DHT22;4613;48.392;9.998;2023-08-21T13:05:38;32.50;99.90
9157;DHT22;4613;48.392;9.998;2023-08-21T13:08:28;32.30;99.90
9157;DHT22;4613;48.392;9.998;2023-08-21T13:11:17;32.00;99.90
9157;DHT22;4613;48.392;9.998;2023-08-21T13:14:06;31.90;99.90
9157;DHT22;4613;48.392;9.998;2023-08-21T13:16:55;32.00;99.90
9157;DHT22;4613;48.392;9.998;2023-08-21T13:19:44;32.10;99.90
9157;DHT22;4613;48.392;9.998;2023-08-21T13:22:46;32.20;99.90
9157;DHT22;4613;48.392;9.998;2023-08-21T13:25:38;32.10;99.90
9157;DHT22;4613;48.392;9.998;2023-08-21T13:28:27;32.30;99.90
9157;DHT22;4613;48.392;9.998;2023-08-21T13:31:17;32.10;99.90
9157;DHT22;4613;48.392;9.998;2023-08-21T13:34:06;32.30;99.90
9157;DHT22;4613;48.392;9.998;2023-08-21T13:36:55;32.30;99.90
9157;DHT22;4613;48.392;9.998;2023-08-21T13:39:46;32.20;99.90
9157;DHT22;4613;48.392;9.998;2023-08-21T13:42:40;32.30;99.90
9157;DHT22;4613;48.392;9.998;2023-08-21T13:45:32;32.20;99.90
9157;DHT22;4613;48.392;9.998;2023-08-21T13:48:22;32.00;99.90
9157;DHT22;4613;48.392;9.998;2023-08-21T13:51:11;32.00;99.90
9157;DHT22;4613;48.392;9.998;2023-08-21T13:54:00;32.00;99.90
9157;DHT22;4613;48.392;9.998;2023-08-21T13:56:50;32.10;99.90
9157;DHT22;4613;48.392;9.998;2023-08-21T13:59:39;32.30;99.90
9157;DHT22;4613;48.392;9.998;2023-08-21T14:02:28;32.20;99.90
9157;DHT22;4613;48.392;9.998;2023-08-21T14:05:17;32.30;99.90
9157;DHT22;4613;48.392;9.998;2023-08-21T14:08:06;32.20;99.90
9157;DHT22;4613;48.392;9.998;2023-08-21T14:10:57;32.20;99.90
9157;DHT22;4613;48.392;9.998;2023-08-21T14:13:48;32.40;99.90
9157;DHT22;4613;48.392;9.998;2023-08-21T14:16:37;32.40;99.90
9157;DHT22;4613;48.392;9.998;2023-08-21T14:19:26;32.50;99.90
9157;DHT22;4613;48.392;9.998;2023-08-21T14:22:15;32.50;99.90
9157;DHT22;4613;48.392;9.998;2023-08-21T14:25:05;32.30;99.90
9157;DHT22;4613;48.392;9.998;2023-08-21T14:27:55;32.40;99.90
9157;DHT22;4613;48.392;9.998;2023-08-21T14:30:44;32.50;99.90
9157;DHT22;4613;48.392;9.998;2023-08-21T14:33:34;32.20;99.80
9157;DHT22;4613;48.392;9.998;2023-08-21T14:36:24;32.10;99.90
9157;DHT22;4613;48.392;9.998;2023-08-21T14:39:14;32.10;99.80
9157;DHT22;4613;48.392;9.998;2023-08-21T14:42:04;32.10;99.80
9157;DHT22;4613;48.392;9.998;2023-08-21T14:44:55;32.10;99.70
9157;DHT22;4613;48.392;9.998;2023-08-21T14:47:45;32.10;99.90
9157;DHT22;4613;48.392;9.998;2023-08-21T14:50:35;32.00;99.90
9157;DHT22;4613;48.392;9.998;2023-08-21T14:53:25;31.80;99.90
9157;DHT22;4613;48.392;9.998;2023-08-21T14:56:14;31.80;99.90
9157;DHT22;4613;48.392;9.998;2023-08-21T14:59:03;31.90;99.90
9157;DHT22;4613;48.392;9.998;2023-08-21T15:01:53;31.80;99.90
9157;DHT22;4613;48.392;9.998;2023-08-21T15:04:43;31.80;99.90
9157;DHT22;4613;48.392;9.998;2023-08-21T15:07:32;31.80;99.90
9157;DHT22;4613;48.392;9.998;2023-08-21T15:10:22;31.80;99.90
9157;DHT22;4613;48.392;9.998;2023-08-21T15:13:11;31.90;99.90
9157;DHT22;4613;48.392;9.998;2023-08-21T15:16:00;31.90;99.90
9157;DHT22;4613;48.392;9.998;2023-08-21T15:18:49;31.90;99.90
9157;DHT22;4613;48.392;9.998;2023-08-21T15:21:41;31.90;99.90
9157;DHT22;4613;48.392;9.998;2023-08-21T15:24:30;32.00;99.90
9157;DHT22;4613;48.392;9.998;2023-08-21T15:27:19;31.90;99.90
9157;DHT22;4613;48.392;9.998;2023-08-21T15:30:10;31.90;99.90
9157;DHT22;4613;48.392;9.998;2023-08-21T15:32:59;31.80;99.90
9157;DHT22;4613;48.392;9.998;2023-08-21T15:35:49;31.80;99.90
9157;DHT22;4613;48.392;9.998;2023-08-21T15:38:38;31.80;99.90
9157;DHT22;4613;48.392;9.998;2023-08-21T15:41:27;31.90;99.90
9157;DHT22;4613;48.392;9.998;2023-08-21T15:44:16;31.90;99.90
9157;DHT22;4613;48.392;9.998;2023-08-21T15:47:06;32.00;99.90
9157;DHT22;4613;48.392;9.998;2023-08-21T15:49:55;32.20;99.90
9157;DHT22;4613;48.392;9.998;2023-08-21T15:52:45;32.30;99.90
9157;DHT22;4613;48.392;9.998;2023-08-21T15:55:36;32.40;99.90
9157;DHT22;4613;48.392;9.998;2023-08-21T15:58:25;32.40;99.90
9157;DHT22;4613;48.392;9.998;2023-08-21T16:01:14;32.50;99.70
9157;DHT22;4613;48.392;9.998;2023-08-21T16:04:03;32.40;99.60
9157;DHT22;4613;48.392;9.998;2023-08-21T16:06:53;32.40;99.40
9157;DHT22;4613;48.392;9.998;2023-08-21T16:09:42;32.30;99.40
9157;DHT22;4613;48.392;9.998;2023-08-21T16:12:31;32.20;99.40
9157;DHT22;4613;48.392;9.998;2023-08-21T16:15:21;32.30;99.60
9157;DHT22;4613;48.392;9.998;2023-08-21T16:18:10;32.30;99.40
9157;DHT22;4613;48.392;9.998;2023-08-21T16:20:59;32.20;99.40
9157;DHT22;4613;48.392;9.998;2023-08-21T16:23:49;32.30;99.20
9157;DHT22;4613;48.392;9.998;2023-08-21T16:26:38;32.10;99.20
9157;DHT22;4613;48.392;9.998;2023-08-21T16:29:28;32.10;99.60
9157;DHT22;4613;48.392;9.998;2023-08-21T16:32:17;32.10;99.90
9157;DHT22;4613;48.392;9.998;2023-08-21T16:35:06;32.00;99.90
9157;DHT22;4613;48.392;9.998;2023-08-21T16:37:56;32.00;99.90
9157;DHT22;4613;48.392;9.998;2023-08-21T16:40:46;32.00;99.90
9157;DHT22;4613;48.392;9.998;2023-08-21T16:43:35;32.00;99.90
9157;DHT22;4613;48.392;9.998;2023-08-21T16:46:24;31.80;99.90
9157;DHT22;4613;48.392;9.998;2023-08-21T16:49:13;31.70;99.90
9157;DHT22;4613;48.392;9.998;2023-08-21T16:52:03;31.60;99.90
9157;DHT22;4613;48.392;9.998;2023-08-21T16:54:52;31.50;99.90
9157;DHT22;4613;48.392;9.998;2023-08-21T16:57:42;31.50;99.90
9157;DHT22;4613;48.392;9.998;2023-08-21T17:00:32;31.40;99.90
9157;DHT22;4613;48.392;9.998;2023-08-21T17:03:21;31.40;99.90
9157;DHT22;4613;48.392;9.998;2023-08-21T17:06:11;31.30;99.90
9157;DHT22;4613;48.392;9.998;2023-08-21T17:09:02;31.10;99.90
9157;DHT22;4613;48.392;9.998;2023-08-21T17:11:53;31.20;99.90
9157;DHT22;4613;48.392;9.998;2023-08-21T17:14:42;31.20;99.90
9157;DHT22;4613;48.392;9.998;2023-08-21T17:17:32;31.10;99.90
9157;DHT22;4613;48.392;9.998;2023-08-21T17:20:21;31.10;99.90
9157;DHT22;4613;48.392;9.998;2023-08-21T17:23:15;31.10;99.90
9157;DHT22;4613;48.392;9.998;2023-08-21T17:26:05;31.10;99.90
9157;DHT22;4613;48.392;9.998;2023-08-21T17:28:54;30.90;99.90
9157;DHT22;4613;48.392;9.998;2023-08-21T17:31:44;30.90;99.90
9157;DHT22;4613;48.392;9.998;2023-08-21T17:34:34;31.00;99.90
9157;DHT22;4613;48.392;9.998;2023-08-21T17:37:23;30.80;99.90
9157;DHT22;4613;48.392;9.998;2023-08-21T17:40:12;30.90;99.90
9157;DHT22;4613;48.392;9.998;2023-08-21T17:43:03;30.90;99.90
9157;DHT22;4613;48.392;9.998;2023-08-21T17:45:53;30.80;99.90
9157;DHT22;4613;48.392;9.998;2023-08-21T17:48:43;30.70;99.90
9157;DHT22;4613;48.392;9.998;2023-08-21T17:51:33;30.80;99.90
9157;DHT22;4613;48.392;9.998;2023-08-21T17:54:22;30.70;99.90
9157;DHT22;4613;48.392;9.998;2023-08-21T17:57:13;30.60;99.90
9157;DHT22;4613;48.392;9.998;2023-08-21T18:00:04;30.50;99.90
9157;DHT22;4613;48.392;9.998;2023-08-21T18:02:58;30.60;99.90
9157;DHT22;4613;48.392;9.998;2023-08-21T18:05:48;30.60;99.90
9157;DHT22;4613;48.392;9.998;2023-08-21T18:08:38;30.60;99.90
9157;DHT22;4613;48.392;9.998;2023-08-21T18:11:27;30.50;99.90
9157;DHT22;4613;48.392;9.998;2023-08-21T18:14:17;30.60;99.90
9157;DHT22;4613;48.392;9.998;2023-08-21T18:17:07;30.60;99.90
9157;DHT22;4613;48.392;9.998;2023-08-21T18:20:03;30.50;99.90
9157;DHT22;4613;48.392;9.998;2023-08-21T18:22:54;30.60;99.90
9157;DHT22;4613;48.392;9.998;2023-08-21T18:25:43;30.60;99.90
9157;DHT22;4613;48.392;9.998;2023-08-21T18:28:32;30.70;99.90
9157;DHT22;4613;48.392;9.998;2023-08-21T18:31:22;30.60;99.90
9157;DHT22;4613;48.392;9.998;2023-08-21T18:34:11;30.50;99.90
9157;DHT22;4613;48.392;9.998;2023-08-21T18:37:01;30.40;99.90
9157;DHT22;4613;48.392;9.998;2023-08-21T18:39:50;30.40;99.90
9157;DHT22;4613;48.392;9.998;2023-08-21T18:42:39;30.40;99.90
9157;DHT22;4613;48.392;9.998;2023-08-21T18:45:29;30.40;99.90